sensor_id;sensor_type;location;lat;lon;timestamp;P1;durP1;ratioP1;P2;durP2;ratioP2
13731;SDS011;6937;56.096;12.664;2022-08-27T00:00:29;7.43;;;5.18;;
13731;SDS011;6937;56.096;12.664;2022-08-27T00:02:54;7.38;;;5.32;;
13731;SDS011;6937;56.096;12.664;2022-08-27T00:05:20;6.55;;;4.90;;
13731;SDS011;6937;56.096;12.664;2022-08-27T00:07:46;6.60;;;4.97;;
13731;SDS011;6937;56.096;12.664;2022-08-27T00:10:15;8.57;;;4.65;;
13731;SDS011;6937;56.096;12.664;2022-08-27T00:12:42;6.45;;;5.40;;
13731;SDS011;6937;56.096;12.664;2022-08-27T00:15:08;8.88;;;6.20;;
13731;SDS011;6937;56.096;12.664;2022-08-27T00:17:34;9.40;;;5.60;;
13731;SDS011;6937;56.096;12.664;2022-08-27T00:20:00;9.65;;;5.40;;
13731;SDS011;6937;56.096;12.664;2022-08-27T00:22:26;7.05;;;5.22;;
13731;SDS011;6937;56.096;12.664;2022-08-27T00:24:52;8.20;;;6.18;;
13731;SDS011;6937;56.096;12.664;2022-08-27T00:27:17;11.45;;;5.75;;
13731;SDS011;6937;56.096;12.664;2022-08-27T00:29:42;6.72;;;5.40;;
13731;SDS011;6937;56.096;12.664;2022-08-27T00:32:08;7.57;;;6.18;;
13731;SDS011;6937;56.096;12.664;2022-08-27T00:34:34;10.18;;;7.13;;
13731;SDS011;6937;56.096;12.664;2022-08-27T00:37:00;8.35;;;6.15;;
13731;SDS011;6937;56.096;12.664;2022-08-27T00:39:26;8.60;;;6.63;;
13731;SDS011;6937;56.096;12.664;2022-08-27T00:41:52;7.18;;;6.30;;
13731;SDS011;6937;56.096;12.664;2022-08-27T00:44:17;7.82;;;6.47;;
13731;SDS011;6937;56.096;12.664;2022-08-27T00:46:50;8.82;;;6.60;;
13731;SDS011;6937;56.096;12.664;2022-08-27T00:49:26;8.45;;;6.35;;
13731;SDS011;6937;56.096;12.664;2022-08-27T00:51:57;11.30;;;7.32;;
13731;SDS011;6937;56.096;12.664;2022-08-27T00:54:27;10.68;;;7.38;;
13731;SDS011;6937;56.096;12.664;2022-08-27T00:56:53;10.77;;;7.80;;
13731;SDS011;6937;56.096;12.664;2022-08-27T00:59:20;11.50;;;7.50;;
13731;SDS011;6937;56.096;12.664;2022-08-27T01:01:48;10.43;;;7.57;;
13731;SDS011;6937;56.096;12.664;2022-08-27T01:04:33;11.82;;;8.02;;
13731;SDS011;6937;56.096;12.664;2022-08-27T01:06:59;12.00;;;7.70;;
13731;SDS011;6937;56.096;12.664;2022-08-27T01:09:26;10.60;;;7.85;;
13731;SDS011;6937;56.096;12.664;2022-08-27T01:11:52;14.43;;;9.27;;
13731;SDS011;6937;56.096;12.664;2022-08-27T01:14:21;10.90;;;8.05;;
13731;SDS011;6937;56.096;12.664;2022-08-27T01:16:49;11.25;;;8.43;;
13731;SDS011;6937;56.096;12.664;2022-08-27T01:24:30;11.20;;;8.93;;
13731;SDS011;6937;56.096;12.664;2022-08-27T01:27:00;16.50;;;9.75;;
13731;SDS011;6937;56.096;12.664;2022-08-27T01:29:27;14.15;;;9.30;;
13731;SDS011;6937;56.096;12.664;2022-08-27T01:31:57;13.90;;;9.00;;
13731;SDS011;6937;56.096;12.664;2022-08-27T01:34:29;13.27;;;9.60;;
13731;SDS011;6937;56.096;12.664;2022-08-27T01:36:54;16.20;;;9.73;;
13731;SDS011;6937;56.096;12.664;2022-08-27T01:39:20;13.80;;;9.88;;
13731;SDS011;6937;56.096;12.664;2022-08-27T01:41:45;15.88;;;10.57;;
13731;SDS011;6937;56.096;12.664;2022-08-27T01:44:11;13.00;;;9.18;;
13731;SDS011;6937;56.096;12.664;2022-08-27T01:46:36;14.73;;;9.50;;
13731;SDS011;6937;56.096;12.664;2022-08-27T01:49:02;11.07;;;8.73;;
13731;SDS011;6937;56.096;12.664;2022-08-27T01:51:27;14.55;;;9.23;;
13731;SDS011;6937;56.096;12.664;2022-08-27T01:53:53;10.73;;;8.52;;
13731;SDS011;6937;56.096;12.664;2022-08-27T01:56:18;15.60;;;9.65;;
13731;SDS011;6937;56.096;12.664;2022-08-27T01:58:44;12.18;;;9.45;;
13731;SDS011;6937;56.096;12.664;2022-08-27T02:01:10;14.57;;;9.13;;
13731;SDS011;6937;56.096;12.664;2022-08-27T02:03:37;12.32;;;8.98;;
13731;SDS011;6937;56.096;12.664;2022-08-27T02:06:05;13.65;;;9.77;;
13731;SDS011;6937;56.096;12.664;2022-08-27T02:08:33;11.98;;;9.35;;
13731;SDS011;6937;56.096;12.664;2022-08-27T02:10:59;13.27;;;9.90;;
13731;SDS011;6937;56.096;12.664;2022-08-27T02:13:25;13.70;;;9.35;;
13731;SDS011;6937;56.096;12.664;2022-08-27T02:15:51;12.35;;;9.05;;
13731;SDS011;6937;56.096;12.664;2022-08-27T02:18:17;14.30;;;10.13;;
13731;SDS011;6937;56.096;12.664;2022-08-27T02:20:46;13.05;;;10.15;;
13731;SDS011;6937;56.096;12.664;2022-08-27T02:23:12;12.63;;;10.45;;
13731;SDS011;6937;56.096;12.664;2022-08-27T02:25:38;14.55;;;10.60;;
13731;SDS011;6937;56.096;12.664;2022-08-27T02:28:05;16.33;;;10.02;;
13731;SDS011;6937;56.096;12.664;2022-08-27T02:30:30;13.05;;;10.40;;
13731;SDS011;6937;56.096;12.664;2022-08-27T02:32:58;14.88;;;10.82;;
13731;SDS011;6937;56.096;12.664;2022-08-27T02:35:28;12.30;;;10.45;;
13731;SDS011;6937;56.096;12.664;2022-08-27T02:37:55;14.95;;;10.77;;
13731;SDS011;6937;56.096;12.664;2022-08-27T02:40:21;12.88;;;10.35;;
13731;SDS011;6937;56.096;12.664;2022-08-27T02:42:48;15.80;;;10.35;;
13731;SDS011;6937;56.096;12.664;2022-08-27T02:45:14;14.02;;;10.57;;
13731;SDS011;6937;56.096;12.664;2022-08-27T02:47:39;12.07;;;10.77;;
13731;SDS011;6937;56.096;12.664;2022-08-27T02:50:06;13.38;;;11.05;;
13731;SDS011;6937;56.096;12.664;2022-08-27T02:52:32;15.18;;;11.50;;
13731;SDS011;6937;56.096;12.664;2022-08-27T02:54:58;16.40;;;12.48;;
13731;SDS011;6937;56.096;12.664;2022-08-27T02:57:24;16.45;;;12.65;;
13731;SDS011;6937;56.096;12.664;2022-08-27T02:59:50;15.77;;;11.95;;
13731;SDS011;6937;56.096;12.664;2022-08-27T03:02:17;17.35;;;12.15;;
13731;SDS011;6937;56.096;12.664;2022-08-27T03:04:43;13.43;;;10.93;;
13731;SDS011;6937;56.096;12.664;2022-08-27T03:07:09;16.92;;;11.52;;
13731;SDS011;6937;56.096;12.664;2022-08-27T03:09:35;12.63;;;11.23;;
13731;SDS011;6937;56.096;12.664;2022-08-27T03:12:00;14.73;;;12.07;;
13731;SDS011;6937;56.096;12.664;2022-08-27T03:14:26;14.75;;;11.45;;
13731;SDS011;6937;56.096;12.664;2022-08-27T03:16:52;12.63;;;10.85;;
13731;SDS011;6937;56.096;12.664;2022-08-27T03:19:18;14.35;;;11.50;;
13731;SDS011;6937;56.096;12.664;2022-08-27T03:21:44;14.35;;;11.60;;
13731;SDS011;6937;56.096;12.664;2022-08-27T03:24:10;13.43;;;11.43;;
13731;SDS011;6937;56.096;12.664;2022-08-27T03:26:36;13.60;;;11.45;;
13731;SDS011;6937;56.096;12.664;2022-08-27T03:29:01;12.75;;;11.45;;
13731;SDS011;6937;56.096;12.664;2022-08-27T03:31:27;14.23;;;11.73;;
13731;SDS011;6937;56.096;12.664;2022-08-27T03:33:54;17.15;;;11.82;;
13731;SDS011;6937;56.096;12.664;2022-08-27T03:36:22;12.82;;;11.38;;
13731;SDS011;6937;56.096;12.664;2022-08-27T03:38:48;13.27;;;11.30;;
13731;SDS011;6937;56.096;12.664;2022-08-27T03:41:14;13.73;;;11.32;;
13731;SDS011;6937;56.096;12.664;2022-08-27T03:43:40;14.15;;;11.60;;
13731;SDS011;6937;56.096;12.664;2022-08-27T03:46:06;16.77;;;11.43;;
13731;SDS011;6937;56.096;12.664;2022-08-27T03:48:32;16.35;;;12.00;;
13731;SDS011;6937;56.096;12.664;2022-08-27T03:50:58;14.13;;;11.77;;
13731;SDS011;6937;56.096;12.664;2022-08-27T03:53:29;15.02;;;12.45;;
13731;SDS011;6937;56.096;12.664;2022-08-27T03:55:54;16.02;;;12.43;;
13731;SDS011;6937;56.096;12.664;2022-08-27T03:58:20;15.00;;;12.77;;
13731;SDS011;6937;56.096;12.664;2022-08-27T04:00:46;13.63;;;12.10;;
13731;SDS011;6937;56.096;12.664;2022-08-27T04:03:12;15.18;;;11.80;;
13731;SDS011;6937;56.096;12.664;2022-08-27T04:05:38;13.32;;;11.82;;
13731;SDS011;6937;56.096;12.664;2022-08-27T04:08:04;15.13;;;12.45;;
13731;SDS011;6937;56.096;12.664;2022-08-27T04:10:31;13.40;;;11.77;;
13731;SDS011;6937;56.096;12.664;2022-08-27T04:12:57;14.18;;;11.65;;
13731;SDS011;6937;56.096;12.664;2022-08-27T04:15:22;12.88;;;11.57;;
13731;SDS011;6937;56.096;12.664;2022-08-27T04:17:48;14.32;;;11.73;;
13731;SDS011;6937;56.096;12.664;2022-08-27T04:20:13;16.00;;;12.90;;
13731;SDS011;6937;56.096;12.664;2022-08-27T04:22:38;13.52;;;11.52;;
13731;SDS011;6937;56.096;12.664;2022-08-27T04:25:04;14.15;;;12.23;;
13731;SDS011;6937;56.096;12.664;2022-08-27T04:27:30;12.95;;;11.50;;
13731;SDS011;6937;56.096;12.664;2022-08-27T04:29:57;13.90;;;11.27;;
13731;SDS011;6937;56.096;12.664;2022-08-27T04:32:25;14.05;;;10.88;;
13731;SDS011;6937;56.096;12.664;2022-08-27T04:34:52;12.13;;;10.85;;
13731;SDS011;6937;56.096;12.664;2022-08-27T04:37:21;13.30;;;11.23;;
13731;SDS011;6937;56.096;12.664;2022-08-27T04:39:48;14.75;;;12.18;;
13731;SDS011;6937;56.096;12.664;2022-08-27T04:42:15;15.18;;;12.43;;
13731;SDS011;6937;56.096;12.664;2022-08-27T04:44:42;14.95;;;12.85;;
13731;SDS011;6937;56.096;12.664;2022-08-27T04:47:08;14.20;;;12.00;;
13731;SDS011;6937;56.096;12.664;2022-08-27T04:49:34;14.32;;;11.88;;
13731;SDS011;6937;56.096;12.664;2022-08-27T04:52:00;14.02;;;12.52;;
13731;SDS011;6937;56.096;12.664;2022-08-27T04:54:26;18.98;;;13.60;;
13731;SDS011;6937;56.096;12.664;2022-08-27T04:56:51;18.35;;;13.45;;
13731;SDS011;6937;56.096;12.664;2022-08-27T04:59:17;18.23;;;14.88;;
13731;SDS011;6937;56.096;12.664;2022-08-27T05:01:42;18.08;;;14.45;;
13731;SDS011;6937;56.096;12.664;2022-08-27T05:04:10;15.77;;;13.90;;
13731;SDS011;6937;56.096;12.664;2022-08-27T05:06:36;14.65;;;13.20;;
13731;SDS011;6937;56.096;12.664;2022-08-27T05:09:03;14.90;;;12.63;;
13731;SDS011;6937;56.096;12.664;2022-08-27T05:11:29;16.98;;;13.85;;
13731;SDS011;6937;56.096;12.664;2022-08-27T05:13:58;19.42;;;14.93;;
13731;SDS011;6937;56.096;12.664;2022-08-27T05:16:26;20.98;;;15.32;;
13731;SDS011;6937;56.096;12.664;2022-08-27T05:18:52;17.58;;;14.45;;
13731;SDS011;6937;56.096;12.664;2022-08-27T05:21:19;19.20;;;14.52;;
13731;SDS011;6937;56.096;12.664;2022-08-27T05:23:51;15.88;;;14.02;;
13731;SDS011;6937;56.096;12.664;2022-08-27T05:26:18;16.42;;;14.07;;
13731;SDS011;6937;56.096;12.664;2022-08-27T05:28:44;16.75;;;13.90;;
13731;SDS011;6937;56.096;12.664;2022-08-27T05:31:10;15.25;;;13.30;;
13731;SDS011;6937;56.096;12.664;2022-08-27T05:33:37;14.70;;;13.13;;
13731;SDS011;6937;56.096;12.664;2022-08-27T05:36:03;15.93;;;13.15;;
13731;SDS011;6937;56.096;12.664;2022-08-27T05:38:30;15.25;;;13.73;;
13731;SDS011;6937;56.096;12.664;2022-08-27T05:41:06;14.93;;;13.00;;
13731;SDS011;6937;56.096;12.664;2022-08-27T05:43:37;13.93;;;12.40;;
13731;SDS011;6937;56.096;12.664;2022-08-27T05:46:06;14.88;;;12.60;;
13731;SDS011;6937;56.096;12.664;2022-08-27T05:48:34;15.25;;;12.15;;
13731;SDS011;6937;56.096;12.664;2022-08-27T05:51:34;13.68;;;12.10;;
13731;SDS011;6937;56.096;12.664;2022-08-27T05:53:55;16.40;;;13.82;;
13731;SDS011;6937;56.096;12.664;2022-08-27T05:56:21;14.57;;;13.07;;
13731;SDS011;6937;56.096;12.664;2022-08-27T05:58:49;14.93;;;13.35;;
13731;SDS011;6937;56.096;12.664;2022-08-27T06:01:34;16.52;;;13.63;;
13731;SDS011;6937;56.096;12.664;2022-08-27T06:04:01;14.02;;;12.52;;
13731;SDS011;6937;56.096;12.664;2022-08-27T06:06:28;19.27;;;14.82;;
13731;SDS011;6937;56.096;12.664;2022-08-27T06:08:53;16.63;;;13.25;;
13731;SDS011;6937;56.096;12.664;2022-08-27T06:11:19;19.25;;;13.82;;
13731;SDS011;6937;56.096;12.664;2022-08-27T06:13:45;19.85;;;15.02;;
13731;SDS011;6937;56.096;12.664;2022-08-27T06:16:13;16.48;;;14.77;;
13731;SDS011;6937;56.096;12.664;2022-08-27T06:18:40;16.02;;;14.15;;
13731;SDS011;6937;56.096;12.664;2022-08-27T06:21:08;16.33;;;14.55;;
13731;SDS011;6937;56.096;12.664;2022-08-27T06:23:34;14.77;;;13.30;;
13731;SDS011;6937;56.096;12.664;2022-08-27T06:26:00;15.60;;;14.00;;
13731;SDS011;6937;56.096;12.664;2022-08-27T06:28:26;21.08;;;15.18;;
13731;SDS011;6937;56.096;12.664;2022-08-27T06:31:01;16.20;;;14.60;;
13731;SDS011;6937;56.096;12.664;2022-08-27T06:33:30;18.35;;;16.27;;
13731;SDS011;6937;56.096;12.664;2022-08-27T06:36:03;22.38;;;17.17;;
13731;SDS011;6937;56.096;12.664;2022-08-27T06:38:31;16.45;;;14.75;;
13731;SDS011;6937;56.096;12.664;2022-08-27T06:40:58;17.85;;;16.05;;
13731;SDS011;6937;56.096;12.664;2022-08-27T06:43:23;22.27;;;17.52;;
13731;SDS011;6937;56.096;12.664;2022-08-27T06:45:50;17.00;;;15.13;;
13731;SDS011;6937;56.096;12.664;2022-08-27T06:48:16;18.30;;;15.77;;
13731;SDS011;6937;56.096;12.664;2022-08-27T06:50:42;18.13;;;16.33;;
13731;SDS011;6937;56.096;12.664;2022-08-27T06:53:08;20.23;;;17.45;;
13731;SDS011;6937;56.096;12.664;2022-08-27T06:55:44;21.83;;;18.17;;
13731;SDS011;6937;56.096;12.664;2022-08-27T06:58:11;22.75;;;18.30;;
13731;SDS011;6937;56.096;12.664;2022-08-27T07:00:38;22.83;;;19.08;;
13731;SDS011;6937;56.096;12.664;2022-08-27T07:03:04;22.80;;;18.90;;
13731;SDS011;6937;56.096;12.664;2022-08-27T07:05:32;23.48;;;19.33;;
13731;SDS011;6937;56.096;12.664;2022-08-27T07:07:59;21.23;;;18.17;;
13731;SDS011;6937;56.096;12.664;2022-08-27T07:10:25;21.42;;;18.30;;
13731;SDS011;6937;56.096;12.664;2022-08-27T07:12:51;21.38;;;17.15;;
13731;SDS011;6937;56.096;12.664;2022-08-27T07:15:17;19.67;;;17.13;;
13731;SDS011;6937;56.096;12.664;2022-08-27T07:17:42;18.67;;;16.67;;
13731;SDS011;6937;56.096;12.664;2022-08-27T07:20:11;20.05;;;17.27;;
13731;SDS011;6937;56.096;12.664;2022-08-27T07:22:38;18.58;;;16.63;;
13731;SDS011;6937;56.096;12.664;2022-08-27T07:25:05;16.77;;;15.18;;
13731;SDS011;6937;56.096;12.664;2022-08-27T07:27:32;19.30;;;16.63;;
13731;SDS011;6937;56.096;12.664;2022-08-27T07:29:57;16.67;;;14.98;;
13731;SDS011;6937;56.096;12.664;2022-08-27T07:32:23;18.23;;;15.57;;
13731;SDS011;6937;56.096;12.664;2022-08-27T07:34:49;20.48;;;16.73;;
13731;SDS011;6937;56.096;12.664;2022-08-27T07:37:14;19.45;;;17.38;;
13731;SDS011;6937;56.096;12.664;2022-08-27T07:39:39;16.35;;;14.73;;
13731;SDS011;6937;56.096;12.664;2022-08-27T07:42:05;17.75;;;15.27;;
13731;SDS011;6937;56.096;12.664;2022-08-27T07:45:08;16.65;;;14.95;;
13731;SDS011;6937;56.096;12.664;2022-08-27T07:47:34;16.35;;;13.98;;
13731;SDS011;6937;56.096;12.664;2022-08-27T07:49:59;17.30;;;14.27;;
13731;SDS011;6937;56.096;12.664;2022-08-27T07:52:25;16.70;;;13.90;;
13731;SDS011;6937;56.096;12.664;2022-08-27T07:54:51;14.55;;;12.60;;
13731;SDS011;6937;56.096;12.664;2022-08-27T07:57:17;13.23;;;11.93;;
13731;SDS011;6937;56.096;12.664;2022-08-27T07:59:42;17.10;;;11.82;;
13731;SDS011;6937;56.096;12.664;2022-08-27T08:02:08;12.75;;;11.23;;
13731;SDS011;6937;56.096;12.664;2022-08-27T08:04:34;15.30;;;11.55;;
13731;SDS011;6937;56.096;12.664;2022-08-27T08:06:59;12.18;;;10.80;;
13731;SDS011;6937;56.096;12.664;2022-08-27T08:09:25;11.13;;;10.13;;
13731;SDS011;6937;56.096;12.664;2022-08-27T08:11:51;14.55;;;10.68;;
13731;SDS011;6937;56.096;12.664;2022-08-27T08:14:17;12.32;;;9.63;;
13731;SDS011;6937;56.096;12.664;2022-08-27T08:16:43;9.85;;;8.95;;
13731;SDS011;6937;56.096;12.664;2022-08-27T08:19:09;9.55;;;8.73;;
13731;SDS011;6937;56.096;12.664;2022-08-27T08:21:35;11.75;;;9.45;;
13731;SDS011;6937;56.096;12.664;2022-08-27T08:24:02;9.82;;;8.85;;
13731;SDS011;6937;56.096;12.664;2022-08-27T08:26:28;10.10;;;9.13;;
13731;SDS011;6937;56.096;12.664;2022-08-27T08:28:53;9.82;;;8.75;;
13731;SDS011;6937;56.096;12.664;2022-08-27T08:31:19;12.25;;;8.98;;
13731;SDS011;6937;56.096;12.664;2022-08-27T08:33:45;9.52;;;8.63;;
13731;SDS011;6937;56.096;12.664;2022-08-27T08:36:13;9.68;;;8.77;;
13731;SDS011;6937;56.096;12.664;2022-08-27T08:38:39;10.20;;;8.82;;
13731;SDS011;6937;56.096;12.664;2022-08-27T08:41:05;9.32;;;8.30;;
13731;SDS011;6937;56.096;12.664;2022-08-27T08:43:44;10.98;;;9.20;;
13731;SDS011;6937;56.096;12.664;2022-08-27T08:48:47;8.13;;;7.35;;
13731;SDS011;6937;56.096;12.664;2022-08-27T08:51:19;7.85;;;7.05;;
13731;SDS011;6937;56.096;12.664;2022-08-27T08:53:57;10.23;;;7.78;;
13731;SDS011;6937;56.096;12.664;2022-08-27T08:59:36;7.15;;;6.55;;
13731;SDS011;6937;56.096;12.664;2022-08-27T09:02:04;7.60;;;6.63;;
13731;SDS011;6937;56.096;12.664;2022-08-27T09:04:31;7.05;;;6.45;;
13731;SDS011;6937;56.096;12.664;2022-08-27T09:07:05;7.00;;;6.30;;
13731;SDS011;6937;56.096;12.664;2022-08-27T09:12:37;6.05;;;5.40;;
13731;SDS011;6937;56.096;12.664;2022-08-27T09:15:16;5.85;;;5.32;;
13731;SDS011;6937;56.096;12.664;2022-08-27T09:17:45;7.45;;;5.72;;
13731;SDS011;6937;56.096;12.664;2022-08-27T09:20:11;5.60;;;5.10;;
13731;SDS011;6937;56.096;12.664;2022-08-27T09:25:34;6.20;;;5.05;;
13731;SDS011;6937;56.096;12.664;2022-08-27T09:28:12;8.13;;;5.25;;
13731;SDS011;6937;56.096;12.664;2022-08-27T09:31:02;6.82;;;4.82;;
13731;SDS011;6937;56.096;12.664;2022-08-27T09:33:30;7.80;;;4.70;;
13731;SDS011;6937;56.096;12.664;2022-08-27T09:35:59;7.93;;;4.85;;
13731;SDS011;6937;56.096;12.664;2022-08-27T09:38:28;4.72;;;4.10;;
13731;SDS011;6937;56.096;12.664;2022-08-27T09:40:58;5.03;;;3.97;;
13731;SDS011;6937;56.096;12.664;2022-08-27T09:43:26;5.45;;;4.38;;
13731;SDS011;6937;56.096;12.664;2022-08-27T09:45:55;6.18;;;4.22;;
13731;SDS011;6937;56.096;12.664;2022-08-27T09:48:33;6.82;;;4.53;;
13731;SDS011;6937;56.096;12.664;2022-08-27T09:51:00;4.88;;;4.10;;
13731;SDS011;6937;56.096;12.664;2022-08-27T09:53:46;5.28;;;3.65;;
13731;SDS011;6937;56.096;12.664;2022-08-27T09:56:22;4.07;;;3.63;;
13731;SDS011;6937;56.096;12.664;2022-08-27T10:01:31;6.15;;;3.42;;
13731;SDS011;6937;56.096;12.664;2022-08-27T10:04:03;4.63;;;4.07;;
13731;SDS011;6937;56.096;12.664;2022-08-27T10:06:47;5.30;;;3.88;;
13731;SDS011;6937;56.096;12.664;2022-08-27T10:09:22;4.07;;;3.67;;
13731;SDS011;6937;56.096;12.664;2022-08-27T10:14:48;4.25;;;3.45;;
13731;SDS011;6937;56.096;12.664;2022-08-27T10:20:05;5.53;;;3.60;;
13731;SDS011;6937;56.096;12.664;2022-08-27T10:25:31;4.80;;;3.85;;
13731;SDS011;6937;56.096;12.664;2022-08-27T10:36:29;3.75;;;3.40;;
13731;SDS011;6937;56.096;12.664;2022-08-27T10:39:11;4.40;;;3.33;;
13731;SDS011;6937;56.096;12.664;2022-08-27T10:44:48;4.75;;;3.50;;
13731;SDS011;6937;56.096;12.664;2022-08-27T10:47:24;3.97;;;3.25;;
13731;SDS011;6937;56.096;12.664;2022-08-27T10:50:10;4.30;;;3.90;;
13731;SDS011;6937;56.096;12.664;2022-08-27T10:52:46;4.45;;;3.65;;
13731;SDS011;6937;56.096;12.664;2022-08-27T11:00:59;4.80;;;3.75;;
13731;SDS011;6937;56.096;12.664;2022-08-27T11:03:29;4.35;;;3.95;;
13731;SDS011;6937;56.096;12.664;2022-08-27T11:06:06;5.50;;;3.78;;
13731;SDS011;6937;56.096;12.664;2022-08-27T11:08:50;5.07;;;3.95;;
13731;SDS011;6937;56.096;12.664;2022-08-27T11:11:27;4.78;;;4.25;;
13731;SDS011;6937;56.096;12.664;2022-08-27T11:13:58;5.53;;;4.30;;
13731;SDS011;6937;56.096;12.664;2022-08-27T11:16:26;4.95;;;4.38;;
13731;SDS011;6937;56.096;12.664;2022-08-27T11:19:32;4.93;;;3.97;;
13731;SDS011;6937;56.096;12.664;2022-08-27T11:22:03;6.47;;;3.80;;
13731;SDS011;6937;56.096;12.664;2022-08-27T11:24:40;4.25;;;3.85;;
13731;SDS011;6937;56.096;12.664;2022-08-27T11:27:11;4.05;;;3.65;;
13731;SDS011;6937;56.096;12.664;2022-08-27T11:29:42;4.80;;;3.78;;
13731;SDS011;6937;56.096;12.664;2022-08-27T11:32:24;4.55;;;3.40;;
13731;SDS011;6937;56.096;12.664;2022-08-27T11:35:10;4.30;;;3.90;;
13731;SDS011;6937;56.096;12.664;2022-08-27T11:40:42;4.40;;;4.00;;
13731;SDS011;6937;56.096;12.664;2022-08-27T11:43:20;3.95;;;3.58;;
13731;SDS011;6937;56.096;12.664;2022-08-27T11:45:51;4.13;;;3.67;;
13731;SDS011;6937;56.096;12.664;2022-08-27T11:48:25;4.63;;;4.13;;
13731;SDS011;6937;56.096;12.664;2022-08-27T11:51:12;4.30;;;3.95;;
13731;SDS011;6937;56.096;12.664;2022-08-27T11:53:56;4.28;;;3.97;;
13731;SDS011;6937;56.096;12.664;2022-08-27T11:58:54;4.68;;;4.32;;
13731;SDS011;6937;56.096;12.664;2022-08-27T12:01:25;4.68;;;4.25;;
13731;SDS011;6937;56.096;12.664;2022-08-27T12:04:06;4.13;;;3.70;;
13731;SDS011;6937;56.096;12.664;2022-08-27T12:06:49;4.82;;;4.40;;
13731;SDS011;6937;56.096;12.664;2022-08-27T12:09:23;4.68;;;3.85;;
13731;SDS011;6937;56.096;12.664;2022-08-27T12:12:02;4.82;;;4.32;;
13731;SDS011;6937;56.096;12.664;2022-08-27T12:25:53;4.97;;;4.47;;
13731;SDS011;6937;56.096;12.664;2022-08-27T12:28:39;4.25;;;3.80;;
13731;SDS011;6937;56.096;12.664;2022-08-27T12:31:05;4.70;;;4.30;;
13731;SDS011;6937;56.096;12.664;2022-08-27T12:33:32;5.97;;;4.50;;
13731;SDS011;6937;56.096;12.664;2022-08-27T12:36:05;5.43;;;4.30;;
13731;SDS011;6937;56.096;12.664;2022-08-27T12:41:00;5.70;;;4.47;;
13731;SDS011;6937;56.096;12.664;2022-08-27T12:43:32;5.95;;;5.10;;
13731;SDS011;6937;56.096;12.664;2022-08-27T12:46:00;7.70;;;4.65;;
13731;SDS011;6937;56.096;12.664;2022-08-27T12:48:31;6.95;;;4.97;;
13731;SDS011;6937;56.096;12.664;2022-08-27T12:51:02;5.28;;;4.78;;
13731;SDS011;6937;56.096;12.664;2022-08-27T13:04:35;5.20;;;4.80;;
13731;SDS011;6937;56.096;12.664;2022-08-27T13:07:03;5.00;;;4.50;;
13731;SDS011;6937;56.096;12.664;2022-08-27T13:09:30;5.70;;;4.85;;
13731;SDS011;6937;56.096;12.664;2022-08-27T13:12:02;5.75;;;5.13;;
13731;SDS011;6937;56.096;12.664;2022-08-27T13:14:36;5.07;;;4.68;;
13731;SDS011;6937;56.096;12.664;2022-08-27T13:17:08;6.15;;;5.10;;
13731;SDS011;6937;56.096;12.664;2022-08-27T13:19:58;6.78;;;5.05;;
13731;SDS011;6937;56.096;12.664;2022-08-27T13:22:26;5.10;;;4.68;;
13731;SDS011;6937;56.096;12.664;2022-08-27T13:24:55;5.10;;;4.60;;
13731;SDS011;6937;56.096;12.664;2022-08-27T13:27:34;5.72;;;4.70;;
13731;SDS011;6937;56.096;12.664;2022-08-27T13:30:05;4.85;;;4.45;;
13731;SDS011;6937;56.096;12.664;2022-08-27T13:32:32;5.55;;;4.95;;
13731;SDS011;6937;56.096;12.664;2022-08-27T13:34:58;6.07;;;5.07;;
13731;SDS011;6937;56.096;12.664;2022-08-27T13:37:32;7.78;;;4.95;;
13731;SDS011;6937;56.096;12.664;2022-08-27T13:39:59;7.10;;;5.05;;
13731;SDS011;6937;56.096;12.664;2022-08-27T13:42:25;9.57;;;4.80;;
13731;SDS011;6937;56.096;12.664;2022-08-27T13:44:52;6.07;;;5.00;;
13731;SDS011;6937;56.096;12.664;2022-08-27T13:47:24;5.40;;;4.80;;
13731;SDS011;6937;56.096;12.664;2022-08-27T13:50:09;6.05;;;4.95;;
13731;SDS011;6937;56.096;12.664;2022-08-27T13:52:41;4.80;;;4.40;;
13731;SDS011;6937;56.096;12.664;2022-08-27T13:55:25;5.35;;;4.68;;
13731;SDS011;6937;56.096;12.664;2022-08-27T13:57:52;4.53;;;4.13;;
13731;SDS011;6937;56.096;12.664;2022-08-27T14:00:23;5.28;;;4.78;;
13731;SDS011;6937;56.096;12.664;2022-08-27T14:02:56;7.03;;;4.60;;
13731;SDS011;6937;56.096;12.664;2022-08-27T14:07:55;5.40;;;4.90;;
13731;SDS011;6937;56.096;12.664;2022-08-27T14:12:58;6.65;;;4.57;;
13731;SDS011;6937;56.096;12.664;2022-08-27T14:15:31;5.60;;;4.60;;
13731;SDS011;6937;56.096;12.664;2022-08-27T14:17:57;5.35;;;4.90;;
13731;SDS011;6937;56.096;12.664;2022-08-27T14:20:22;4.80;;;4.40;;
13731;SDS011;6937;56.096;12.664;2022-08-27T14:22:48;4.85;;;4.40;;
13731;SDS011;6937;56.096;12.664;2022-08-27T14:25:14;5.85;;;4.45;;
13731;SDS011;6937;56.096;12.664;2022-08-27T14:27:42;5.55;;;4.80;;
13731;SDS011;6937;56.096;12.664;2022-08-27T14:30:11;5.32;;;4.93;;
13731;SDS011;6937;56.096;12.664;2022-08-27T14:32:38;5.53;;;4.45;;
13731;SDS011;6937;56.096;12.664;2022-08-27T14:35:05;5.43;;;4.70;;
13731;SDS011;6937;56.096;12.664;2022-08-27T14:37:31;4.72;;;4.32;;
13731;SDS011;6937;56.096;12.664;2022-08-27T14:39:56;4.72;;;4.15;;
13731;SDS011;6937;56.096;12.664;2022-08-27T14:42:22;5.20;;;4.70;;
13731;SDS011;6937;56.096;12.664;2022-08-27T14:44:47;4.70;;;4.30;;
13731;SDS011;6937;56.096;12.664;2022-08-27T14:47:13;5.10;;;4.70;;
13731;SDS011;6937;56.096;12.664;2022-08-27T14:49:41;4.85;;;4.38;;
13731;SDS011;6937;56.096;12.664;2022-08-27T14:52:09;5.28;;;4.70;;
13731;SDS011;6937;56.096;12.664;2022-08-27T14:54:36;5.10;;;4.60;;
13731;SDS011;6937;56.096;12.664;2022-08-27T14:57:03;5.13;;;4.65;;
13731;SDS011;6937;56.096;12.664;2022-08-27T14:59:30;5.28;;;4.75;;
13731;SDS011;6937;56.096;12.664;2022-08-27T15:01:56;5.22;;;4.82;;
13731;SDS011;6937;56.096;12.664;2022-08-27T15:04:23;5.68;;;5.13;;
13731;SDS011;6937;56.096;12.664;2022-08-27T15:06:50;4.97;;;4.53;;
13731;SDS011;6937;56.096;12.664;2022-08-27T15:09:15;5.90;;;4.78;;
13731;SDS011;6937;56.096;12.664;2022-08-27T15:11:41;5.75;;;5.10;;
13731;SDS011;6937;56.096;12.664;2022-08-27T15:14:10;5.70;;;5.13;;
13731;SDS011;6937;56.096;12.664;2022-08-27T15:16:40;6.22;;;4.80;;
13731;SDS011;6937;56.096;12.664;2022-08-27T15:19:08;5.53;;;4.80;;
13731;SDS011;6937;56.096;12.664;2022-08-27T15:21:35;5.15;;;4.72;;
13731;SDS011;6937;56.096;12.664;2022-08-27T15:24:05;5.70;;;5.18;;
13731;SDS011;6937;56.096;12.664;2022-08-27T15:26:36;5.30;;;4.80;;
13731;SDS011;6937;56.096;12.664;2022-08-27T15:29:02;5.53;;;4.88;;
13731;SDS011;6937;56.096;12.664;2022-08-27T15:31:28;5.15;;;4.70;;
13731;SDS011;6937;56.096;12.664;2022-08-27T15:33:53;6.10;;;4.72;;
13731;SDS011;6937;56.096;12.664;2022-08-27T15:36:19;5.35;;;4.85;;
13731;SDS011;6937;56.096;12.664;2022-08-27T15:38:44;5.53;;;5.03;;
13731;SDS011;6937;56.096;12.664;2022-08-27T15:41:10;5.70;;;4.90;;
13731;SDS011;6937;56.096;12.664;2022-08-27T15:43:36;5.93;;;4.80;;
13731;SDS011;6937;56.096;12.664;2022-08-27T15:46:02;5.85;;;4.57;;
13731;SDS011;6937;56.096;12.664;2022-08-27T15:48:29;5.05;;;4.65;;
13731;SDS011;6937;56.096;12.664;2022-08-27T15:50:56;4.90;;;4.50;;
13731;SDS011;6937;56.096;12.664;2022-08-27T15:53:26;6.97;;;4.88;;
13731;SDS011;6937;56.096;12.664;2022-08-27T15:55:51;5.50;;;5.00;;
13731;SDS011;6937;56.096;12.664;2022-08-27T15:58:17;6.32;;;5.53;;
13731;SDS011;6937;56.096;12.664;2022-08-27T16:00:44;5.57;;;4.97;;
13731;SDS011;6937;56.096;12.664;2022-08-27T16:03:10;6.95;;;4.00;;
13731;SDS011;6937;56.096;12.664;2022-08-27T16:05:38;5.43;;;4.50;;